sensor_id;sensor_type;location;lat;lon;timestamp;P1;durP1;ratioP1;P2;durP2;ratioP2
2998;SDS011;1509;51.964;7.628;2023-07-16T00:02:08;2.90;;;1.77;;
2998;SDS011;1509;51.964;7.628;2023-07-16T00:04:34;4.37;;;2.10;;
2998;SDS011;1509;51.964;7.628;2023-07-16T00:07:00;5.70;;;2.40;;
2998;SDS011;1509;51.964;7.628;2023-07-16T00:09:28;3.00;;;1.80;;
2998;SDS011;1509;51.964;7.628;2023-07-16T00:11:54;5.40;;;2.10;;
2998;SDS011;1509;51.964;7.628;2023-07-16T00:14:21;4.83;;;1.77;;
2998;SDS011;1509;51.964;7.628;2023-07-16T00:16:46;4.60;;;2.60;;
2998;SDS011;1509;51.964;7.628;2023-07-16T00:19:12;5.93;;;2.43;;
2998;SDS011;1509;51.964;7.628;2023-07-16T00:21:39;5.20;;;2.53;;
2998;SDS011;1509;51.964;7.628;2023-07-16T00:24:04;4.87;;;1.90;;
2998;SDS011;1509;51.964;7.628;2023-07-16T00:26:30;3.40;;;2.20;;
2998;SDS011;1509;51.964;7.628;2023-07-16T00:28:56;3.10;;;1.90;;
2998;SDS011;1509;51.964;7.628;2023-07-16T00:31:21;6.47;;;2.43;;
2998;SDS011;1509;51.964;7.628;2023-07-16T00:33:47;4.93;;;3.50;;
2998;SDS011;1509;51.964;7.628;2023-07-16T00:36:13;5.33;;;2.70;;
2998;SDS011;1509;51.964;7.628;2023-07-16T00:38:38;3.87;;;2.67;;
2998;SDS011;1509;51.964;7.628;2023-07-16T00:41:06;3.30;;;2.20;;
2998;SDS011;1509;51.964;7.628;2023-07-16T00:43:32;4.67;;;2.30;;
2998;SDS011;1509;51.964;7.628;2023-07-16T00:45:57;3.80;;;2.20;;
2998;SDS011;1509;51.964;7.628;2023-07-16T00:48:23;5.13;;;2.63;;
2998;SDS011;1509;51.964;7.628;2023-07-16T00:50:49;4.27;;;2.60;;
2998;SDS011;1509;51.964;7.628;2023-07-16T00:53:17;4.50;;;2.60;;
2998;SDS011;1509;51.964;7.628;2023-07-16T00:55:44;4.80;;;2.10;;
2998;SDS011;1509;51.964;7.628;2023-07-16T00:58:10;3.93;;;2.10;;
2998;SDS011;1509;51.964;7.628;2023-07-16T01:00:36;3.77;;;2.40;;
2998;SDS011;1509;51.964;7.628;2023-07-16T01:03:04;8.33;;;2.43;;
2998;SDS011;1509;51.964;7.628;2023-07-16T01:08:46;3.80;;;2.40;;
2998;SDS011;1509;51.964;7.628;2023-07-16T01:11:48;4.93;;;2.37;;
2998;SDS011;1509;51.964;7.628;2023-07-16T01:14:16;3.07;;;2.00;;
2998;SDS011;1509;51.964;7.628;2023-07-16T01:16:46;3.73;;;3.00;;
2998;SDS011;1509;51.964;7.628;2023-07-16T01:19:11;4.73;;;2.17;;
2998;SDS011;1509;51.964;7.628;2023-07-16T01:29:41;6.07;;;3.43;;
2998;SDS011;1509;51.964;7.628;2023-07-16T01:32:37;3.73;;;2.73;;
2998;SDS011;1509;51.964;7.628;2023-07-16T01:35:05;3.40;;;2.60;;
2998;SDS011;1509;51.964;7.628;2023-07-16T01:37:31;5.60;;;2.93;;
2998;SDS011;1509;51.964;7.628;2023-07-16T01:39:57;3.60;;;2.67;;
2998;SDS011;1509;51.964;7.628;2023-07-16T01:42:23;5.33;;;3.00;;
2998;SDS011;1509;51.964;7.628;2023-07-16T01:44:48;4.67;;;2.60;;
2998;SDS011;1509;51.964;7.628;2023-07-16T01:47:24;4.70;;;2.67;;
2998;SDS011;1509;51.964;7.628;2023-07-16T01:50:03;6.30;;;2.80;;
2998;SDS011;1509;51.964;7.628;2023-07-16T01:52:30;4.73;;;2.77;;
2998;SDS011;1509;51.964;7.628;2023-07-16T01:54:55;5.23;;;2.63;;
2998;SDS011;1509;51.964;7.628;2023-07-16T01:57:21;6.90;;;2.60;;
2998;SDS011;1509;51.964;7.628;2023-07-16T01:59:47;6.93;;;2.90;;
2998;SDS011;1509;51.964;7.628;2023-07-16T02:02:12;6.60;;;3.10;;
2998;SDS011;1509;51.964;7.628;2023-07-16T02:04:38;3.43;;;2.40;;
2998;SDS011;1509;51.964;7.628;2023-07-16T02:07:03;8.33;;;3.00;;
2998;SDS011;1509;51.964;7.628;2023-07-16T02:09:29;5.40;;;3.10;;
2998;SDS011;1509;51.964;7.628;2023-07-16T02:11:55;4.37;;;2.70;;
2998;SDS011;1509;51.964;7.628;2023-07-16T02:14:21;5.77;;;2.80;;
2998;SDS011;1509;51.964;7.628;2023-07-16T02:16:46;4.33;;;2.43;;
2998;SDS011;1509;51.964;7.628;2023-07-16T02:19:12;4.10;;;3.00;;
2998;SDS011;1509;51.964;7.628;2023-07-16T02:21:37;4.17;;;2.90;;
2998;SDS011;1509;51.964;7.628;2023-07-16T02:24:03;3.83;;;2.60;;
2998;SDS011;1509;51.964;7.628;2023-07-16T02:26:29;6.90;;;2.83;;
2998;SDS011;1509;51.964;7.628;2023-07-16T02:28:54;6.90;;;3.27;;
2998;SDS011;1509;51.964;7.628;2023-07-16T02:31:20;5.70;;;3.30;;
2998;SDS011;1509;51.964;7.628;2023-07-16T02:33:46;6.33;;;3.20;;
2998;SDS011;1509;51.964;7.628;2023-07-16T02:36:11;5.87;;;3.40;;
2998;SDS011;1509;51.964;7.628;2023-07-16T02:38:37;5.83;;;2.73;;
2998;SDS011;1509;51.964;7.628;2023-07-16T02:41:03;8.30;;;4.07;;
2998;SDS011;1509;51.964;7.628;2023-07-16T02:43:28;6.23;;;4.60;;
2998;SDS011;1509;51.964;7.628;2023-07-16T02:45:54;8.20;;;3.70;;
2998;SDS011;1509;51.964;7.628;2023-07-16T02:48:19;5.10;;;3.93;;
2998;SDS011;1509;51.964;7.628;2023-07-16T02:50:45;5.20;;;3.90;;
2998;SDS011;1509;51.964;7.628;2023-07-16T02:53:11;6.57;;;4.27;;
2998;SDS011;1509;51.964;7.628;2023-07-16T02:55:36;7.40;;;4.50;;
2998;SDS011;1509;51.964;7.628;2023-07-16T02:58:02;5.90;;;5.20;;
2998;SDS011;1509;51.964;7.628;2023-07-16T03:00:29;5.97;;;3.83;;
2998;SDS011;1509;51.964;7.628;2023-07-16T03:02:56;6.20;;;3.97;;
2998;SDS011;1509;51.964;7.628;2023-07-16T03:05:23;7.20;;;4.90;;
2998;SDS011;1509;51.964;7.628;2023-07-16T03:07:49;6.70;;;4.07;;
2998;SDS011;1509;51.964;7.628;2023-07-16T03:10:14;6.33;;;4.40;;
2998;SDS011;1509;51.964;7.628;2023-07-16T03:12:40;9.20;;;3.97;;
2998;SDS011;1509;51.964;7.628;2023-07-16T03:15:06;7.93;;;4.80;;
2998;SDS011;1509;51.964;7.628;2023-07-16T03:17:32;5.47;;;4.13;;
2998;SDS011;1509;51.964;7.628;2023-07-16T03:19:57;5.90;;;4.50;;
2998;SDS011;1509;51.964;7.628;2023-07-16T03:22:23;5.50;;;3.90;;
2998;SDS011;1509;51.964;7.628;2023-07-16T03:24:48;5.90;;;4.00;;
2998;SDS011;1509;51.964;7.628;2023-07-16T03:27:14;9.33;;;4.50;;
2998;SDS011;1509;51.964;7.628;2023-07-16T03:29:40;7.90;;;4.70;;
2998;SDS011;1509;51.964;7.628;2023-07-16T03:32:05;8.10;;;4.50;;
2998;SDS011;1509;51.964;7.628;2023-07-16T03:34:31;7.90;;;4.70;;
2998;SDS011;1509;51.964;7.628;2023-07-16T03:36:57;7.03;;;5.03;;
2998;SDS011;1509;51.964;7.628;2023-07-16T03:39:22;9.07;;;4.53;;
2998;SDS011;1509;51.964;7.628;2023-07-16T03:41:48;7.10;;;5.30;;
2998;SDS011;1509;51.964;7.628;2023-07-16T03:44:13;9.17;;;4.93;;
2998;SDS011;1509;51.964;7.628;2023-07-16T03:46:39;10.17;;;5.60;;
2998;SDS011;1509;51.964;7.628;2023-07-16T03:49:06;7.63;;;4.93;;
2998;SDS011;1509;51.964;7.628;2023-07-16T03:51:35;6.63;;;5.20;;
2998;SDS011;1509;51.964;7.628;2023-07-16T03:54:01;11.63;;;5.57;;
2998;SDS011;1509;51.964;7.628;2023-07-16T03:56:26;8.10;;;4.77;;
2998;SDS011;1509;51.964;7.628;2023-07-16T03:58:52;10.00;;;4.00;;
2998;SDS011;1509;51.964;7.628;2023-07-16T04:01:21;5.60;;;4.10;;
2998;SDS011;1509;51.964;7.628;2023-07-16T04:03:46;4.90;;;3.93;;
2998;SDS011;1509;51.964;7.628;2023-07-16T04:06:12;7.93;;;4.87;;
2998;SDS011;1509;51.964;7.628;2023-07-16T04:08:37;5.00;;;3.67;;
2998;SDS011;1509;51.964;7.628;2023-07-16T04:11:03;6.20;;;3.63;;
2998;SDS011;1509;51.964;7.628;2023-07-16T04:13:29;5.80;;;4.03;;
2998;SDS011;1509;51.964;7.628;2023-07-16T04:15:55;8.80;;;3.97;;
2998;SDS011;1509;51.964;7.628;2023-07-16T04:18:22;5.23;;;3.60;;
2998;SDS011;1509;51.964;7.628;2023-07-16T04:20:50;6.03;;;3.13;;
2998;SDS011;1509;51.964;7.628;2023-07-16T04:23:17;6.20;;;3.50;;
2998;SDS011;1509;51.964;7.628;2023-07-16T04:25:42;3.23;;;2.90;;
2998;SDS011;1509;51.964;7.628;2023-07-16T04:28:09;9.77;;;3.43;;
2998;SDS011;1509;51.964;7.628;2023-07-16T04:30:37;6.17;;;3.27;;
2998;SDS011;1509;51.964;7.628;2023-07-16T04:33:05;5.03;;;2.93;;
2998;SDS011;1509;51.964;7.628;2023-07-16T04:35:31;5.23;;;2.93;;
2998;SDS011;1509;51.964;7.628;2023-07-16T04:37:58;4.60;;;3.30;;
2998;SDS011;1509;51.964;7.628;2023-07-16T04:40:23;4.20;;;2.80;;
2998;SDS011;1509;51.964;7.628;2023-07-16T04:42:49;3.83;;;3.00;;
2998;SDS011;1509;51.964;7.628;2023-07-16T04:45:15;8.13;;;2.50;;
2998;SDS011;1509;51.964;7.628;2023-07-16T04:47:40;7.90;;;3.20;;
2998;SDS011;1509;51.964;7.628;2023-07-16T04:50:06;4.90;;;2.67;;
2998;SDS011;1509;51.964;7.628;2023-07-16T04:52:32;6.87;;;3.57;;
2998;SDS011;1509;51.964;7.628;2023-07-16T04:54:57;6.73;;;2.67;;
2998;SDS011;1509;51.964;7.628;2023-07-16T04:57:23;5.27;;;3.00;;
2998;SDS011;1509;51.964;7.628;2023-07-16T04:59:48;5.53;;;2.80;;
2998;SDS011;1509;51.964;7.628;2023-07-16T05:02:14;6.23;;;3.20;;
2998;SDS011;1509;51.964;7.628;2023-07-16T05:04:42;5.67;;;2.97;;
2998;SDS011;1509;51.964;7.628;2023-07-16T05:07:09;6.37;;;3.40;;
2998;SDS011;1509;51.964;7.628;2023-07-16T05:09:35;9.73;;;3.00;;
2998;SDS011;1509;51.964;7.628;2023-07-16T05:12:00;6.27;;;3.07;;
2998;SDS011;1509;51.964;7.628;2023-07-16T05:14:27;3.17;;;2.53;;
2998;SDS011;1509;51.964;7.628;2023-07-16T05:16:53;5.33;;;3.03;;
2998;SDS011;1509;51.964;7.628;2023-07-16T05:19:19;7.23;;;3.23;;
2998;SDS011;1509;51.964;7.628;2023-07-16T05:21:44;6.20;;;2.90;;
2998;SDS011;1509;51.964;7.628;2023-07-16T05:24:10;4.87;;;2.83;;
2998;SDS011;1509;51.964;7.628;2023-07-16T05:26:36;7.80;;;3.43;;
2998;SDS011;1509;51.964;7.628;2023-07-16T05:29:01;5.53;;;3.33;;
2998;SDS011;1509;51.964;7.628;2023-07-16T05:31:27;4.73;;;3.07;;
2998;SDS011;1509;51.964;7.628;2023-07-16T05:33:52;9.10;;;3.37;;
2998;SDS011;1509;51.964;7.628;2023-07-16T05:36:18;4.70;;;2.67;;
2998;SDS011;1509;51.964;7.628;2023-07-16T05:38:44;5.17;;;2.80;;
2998;SDS011;1509;51.964;7.628;2023-07-16T05:41:09;9.53;;;3.30;;
2998;SDS011;1509;51.964;7.628;2023-07-16T05:43:35;6.20;;;3.07;;
2998;SDS011;1509;51.964;7.628;2023-07-16T05:46:00;9.60;;;3.50;;
2998;SDS011;1509;51.964;7.628;2023-07-16T05:48:26;7.57;;;3.30;;
2998;SDS011;1509;51.964;7.628;2023-07-16T05:50:52;6.10;;;4.03;;
2998;SDS011;1509;51.964;7.628;2023-07-16T05:53:17;4.83;;;3.40;;
2998;SDS011;1509;51.964;7.628;2023-07-16T05:55:43;10.33;;;3.57;;
2998;SDS011;1509;51.964;7.628;2023-07-16T05:58:09;7.50;;;4.00;;
2998;SDS011;1509;51.964;7.628;2023-07-16T06:00:35;7.13;;;4.27;;
2998;SDS011;1509;51.964;7.628;2023-07-16T06:03:02;9.50;;;3.73;;
2998;SDS011;1509;51.964;7.628;2023-07-16T06:05:27;8.30;;;3.93;;
2998;SDS011;1509;51.964;7.628;2023-07-16T06:07:57;6.17;;;3.47;;
2998;SDS011;1509;51.964;7.628;2023-07-16T06:10:23;6.50;;;3.43;;
2998;SDS011;1509;51.964;7.628;2023-07-16T06:12:48;10.83;;;3.27;;
2998;SDS011;1509;51.964;7.628;2023-07-16T06:15:14;8.70;;;4.37;;
2998;SDS011;1509;51.964;7.628;2023-07-16T06:17:40;9.80;;;3.67;;
2998;SDS011;1509;51.964;7.628;2023-07-16T06:20:05;5.77;;;3.50;;
2998;SDS011;1509;51.964;7.628;2023-07-16T06:22:32;5.97;;;3.80;;
2998;SDS011;1509;51.964;7.628;2023-07-16T06:24:57;6.27;;;3.70;;
2998;SDS011;1509;51.964;7.628;2023-07-16T06:27:24;7.67;;;4.87;;
2998;SDS011;1509;51.964;7.628;2023-07-16T06:29:50;10.63;;;3.40;;
2998;SDS011;1509;51.964;7.628;2023-07-16T06:32:16;6.23;;;3.60;;
2998;SDS011;1509;51.964;7.628;2023-07-16T06:34:41;12.77;;;4.50;;
2998;SDS011;1509;51.964;7.628;2023-07-16T06:37:07;7.23;;;4.20;;
2998;SDS011;1509;51.964;7.628;2023-07-16T06:39:33;7.57;;;3.80;;
2998;SDS011;1509;51.964;7.628;2023-07-16T06:41:58;8.07;;;3.70;;
2998;SDS011;1509;51.964;7.628;2023-07-16T06:44:24;7.27;;;3.90;;
2998;SDS011;1509;51.964;7.628;2023-07-16T06:46:49;9.90;;;3.83;;
2998;SDS011;1509;51.964;7.628;2023-07-16T06:49:15;5.40;;;3.23;;
2998;SDS011;1509;51.964;7.628;2023-07-16T06:51:41;6.50;;;3.73;;
2998;SDS011;1509;51.964;7.628;2023-07-16T06:54:06;6.30;;;4.10;;
2998;SDS011;1509;51.964;7.628;2023-07-16T06:56:33;8.07;;;3.80;;
2998;SDS011;1509;51.964;7.628;2023-07-16T06:58:58;13.00;;;3.87;;
2998;SDS011;1509;51.964;7.628;2023-07-16T07:01:24;6.70;;;4.00;;
2998;SDS011;1509;51.964;7.628;2023-07-16T07:03:52;5.83;;;3.00;;
2998;SDS011;1509;51.964;7.628;2023-07-16T07:06:18;6.10;;;3.57;;
2998;SDS011;1509;51.964;7.628;2023-07-16T07:08:44;7.50;;;3.47;;
2998;SDS011;1509;51.964;7.628;2023-07-16T07:11:09;8.07;;;4.20;;
2998;SDS011;1509;51.964;7.628;2023-07-16T07:13:35;6.73;;;3.83;;
2998;SDS011;1509;51.964;7.628;2023-07-16T07:16:00;8.67;;;4.10;;
2998;SDS011;1509;51.964;7.628;2023-07-16T07:18:26;8.03;;;3.80;;
2998;SDS011;1509;51.964;7.628;2023-07-16T07:20:51;9.50;;;4.90;;
2998;SDS011;1509;51.964;7.628;2023-07-16T07:23:17;6.00;;;4.30;;
2998;SDS011;1509;51.964;7.628;2023-07-16T07:25:43;8.30;;;3.27;;
2998;SDS011;1509;51.964;7.628;2023-07-16T07:28:08;9.43;;;4.17;;
2998;SDS011;1509;51.964;7.628;2023-07-16T07:30:34;6.97;;;4.40;;
2998;SDS011;1509;51.964;7.628;2023-07-16T07:32:59;6.87;;;4.70;;
2998;SDS011;1509;51.964;7.628;2023-07-16T07:35:25;6.00;;;3.80;;
2998;SDS011;1509;51.964;7.628;2023-07-16T07:37:51;5.90;;;4.40;;
2998;SDS011;1509;51.964;7.628;2023-07-16T07:40:16;7.30;;;4.00;;
2998;SDS011;1509;51.964;7.628;2023-07-16T07:42:42;9.53;;;5.77;;
2998;SDS011;1509;51.964;7.628;2023-07-16T07:45:08;7.70;;;4.03;;
2998;SDS011;1509;51.964;7.628;2023-07-16T07:47:33;6.70;;;4.10;;
2998;SDS011;1509;51.964;7.628;2023-07-16T07:49:59;7.03;;;4.30;;
2998;SDS011;1509;51.964;7.628;2023-07-16T07:52:26;7.77;;;4.53;;
2998;SDS011;1509;51.964;7.628;2023-07-16T07:54:52;6.13;;;3.73;;
2998;SDS011;1509;51.964;7.628;2023-07-16T07:57:19;6.13;;;3.87;;
2998;SDS011;1509;51.964;7.628;2023-07-16T07:59:45;7.57;;;3.43;;
2998;SDS011;1509;51.964;7.628;2023-07-16T08:02:10;5.70;;;3.77;;
2998;SDS011;1509;51.964;7.628;2023-07-16T08:04:36;9.97;;;3.60;;
2998;SDS011;1509;51.964;7.628;2023-07-16T08:07:02;5.30;;;3.80;;
2998;SDS011;1509;51.964;7.628;2023-07-16T08:09:27;6.10;;;3.63;;
2998;SDS011;1509;51.964;7.628;2023-07-16T08:11:53;6.37;;;4.00;;
2998;SDS011;1509;51.964;7.628;2023-07-16T08:14:18;8.53;;;3.90;;
2998;SDS011;1509;51.964;7.628;2023-07-16T08:16:44;6.47;;;4.33;;
2998;SDS011;1509;51.964;7.628;2023-07-16T08:19:10;7.60;;;4.50;;
2998;SDS011;1509;51.964;7.628;2023-07-16T08:21:35;8.47;;;4.30;;
2998;SDS011;1509;51.964;7.628;2023-07-16T08:24:02;7.47;;;4.00;;
2998;SDS011;1509;51.964;7.628;2023-07-16T08:26:30;6.10;;;4.07;;
2998;SDS011;1509;51.964;7.628;2023-07-16T08:28:56;9.27;;;5.40;;
2998;SDS011;1509;51.964;7.628;2023-07-16T08:31:21;11.03;;;4.23;;
2998;SDS011;1509;51.964;7.628;2023-07-16T08:33:47;10.37;;;5.43;;
2998;SDS011;1509;51.964;7.628;2023-07-16T08:36:13;8.77;;;4.63;;
2998;SDS011;1509;51.964;7.628;2023-07-16T08:38:38;8.90;;;4.73;;
2998;SDS011;1509;51.964;7.628;2023-07-16T08:41:04;8.23;;;3.77;;
2998;SDS011;1509;51.964;7.628;2023-07-16T08:43:29;5.77;;;4.17;;
2998;SDS011;1509;51.964;7.628;2023-07-16T08:45:57;9.90;;;4.63;;
2998;SDS011;1509;51.964;7.628;2023-07-16T08:48:23;9.80;;;4.90;;
2998;SDS011;1509;51.964;7.628;2023-07-16T08:50:50;4.80;;;3.40;;
2998;SDS011;1509;51.964;7.628;2023-07-16T08:53:15;7.03;;;3.83;;
2998;SDS011;1509;51.964;7.628;2023-07-16T08:55:43;7.60;;;5.10;;
2998;SDS011;1509;51.964;7.628;2023-07-16T08:58:09;5.80;;;3.80;;
2998;SDS011;1509;51.964;7.628;2023-07-16T09:00:39;7.20;;;5.00;;
2998;SDS011;1509;51.964;7.628;2023-07-16T09:03:06;5.60;;;3.40;;
2998;SDS011;1509;51.964;7.628;2023-07-16T09:05:32;11.67;;;3.77;;
2998;SDS011;1509;51.964;7.628;2023-07-16T09:07:58;5.87;;;3.80;;
2998;SDS011;1509;51.964;7.628;2023-07-16T09:10:24;5.37;;;3.83;;
2998;SDS011;1509;51.964;7.628;2023-07-16T09:12:50;5.50;;;3.70;;
2998;SDS011;1509;51.964;7.628;2023-07-16T09:15:18;11.30;;;4.20;;
2998;SDS011;1509;51.964;7.628;2023-07-16T09:17:47;7.50;;;3.77;;
2998;SDS011;1509;51.964;7.628;2023-07-16T09:20:17;6.37;;;3.20;;
2998;SDS011;1509;51.964;7.628;2023-07-16T09:22:43;8.20;;;4.10;;
2998;SDS011;1509;51.964;7.628;2023-07-16T09:25:10;5.20;;;3.37;;
2998;SDS011;1509;51.964;7.628;2023-07-16T09:27:36;9.27;;;4.10;;
2998;SDS011;1509;51.964;7.628;2023-07-16T09:30:03;5.00;;;2.97;;
2998;SDS011;1509;51.964;7.628;2023-07-16T09:32:39;4.80;;;3.10;;
2998;SDS011;1509;51.964;7.628;2023-07-16T09:35:06;5.20;;;3.37;;
2998;SDS011;1509;51.964;7.628;2023-07-16T09:37:35;4.80;;;3.13;;
2998;SDS011;1509;51.964;7.628;2023-07-16T09:40:05;7.87;;;3.37;;
2998;SDS011;1509;51.964;7.628;2023-07-16T09:42:36;5.20;;;3.00;;
2998;SDS011;1509;51.964;7.628;2023-07-16T09:45:06;6.53;;;3.57;;
2998;SDS011;1509;51.964;7.628;2023-07-16T09:47:36;7.57;;;3.10;;
2998;SDS011;1509;51.964;7.628;2023-07-16T09:50:02;10.43;;;4.70;;
2998;SDS011;1509;51.964;7.628;2023-07-16T09:52:29;8.23;;;4.07;;
2998;SDS011;1509;51.964;7.628;2023-07-16T09:54:57;7.23;;;3.50;;
2998;SDS011;1509;51.964;7.628;2023-07-16T09:57:28;8.90;;;3.80;;
2998;SDS011;1509;51.964;7.628;2023-07-16T09:59:59;6.83;;;4.30;;
2998;SDS011;1509;51.964;7.628;2023-07-16T10:02:30;10.40;;;4.93;;
2998;SDS011;1509;51.964;7.628;2023-07-16T10:05:10;5.37;;;3.60;;
2998;SDS011;1509;51.964;7.628;2023-07-16T10:07:54;9.73;;;3.40;;
2998;SDS011;1509;51.964;7.628;2023-07-16T10:10:25;6.80;;;3.53;;
2998;SDS011;1509;51.964;7.628;2023-07-16T10:13:15;7.80;;;3.97;;
2998;SDS011;1509;51.964;7.628;2023-07-16T10:15:51;9.17;;;4.10;;
2998;SDS011;1509;51.964;7.628;2023-07-16T10:18:27;5.27;;;3.47;;
2998;SDS011;1509;51.964;7.628;2023-07-16T10:20:59;7.27;;;3.33;;
2998;SDS011;1509;51.964;7.628;2023-07-16T10:23:45;5.87;;;3.60;;
2998;SDS011;1509;51.964;7.628;2023-07-16T10:26:12;5.83;;;3.87;;
2998;SDS011;1509;51.964;7.628;2023-07-16T10:28:38;6.27;;;5.13;;
2998;SDS011;1509;51.964;7.628;2023-07-16T10:31:04;5.43;;;3.67;;
2998;SDS011;1509;51.964;7.628;2023-07-16T10:33:33;7.87;;;4.00;;
2998;SDS011;1509;51.964;7.628;2023-07-16T10:35:59;7.30;;;3.37;;
2998;SDS011;1509;51.964;7.628;2023-07-16T10:38:25;7.53;;;3.90;;
2998;SDS011;1509;51.964;7.628;2023-07-16T10:40:51;8.27;;;4.03;;
2998;SDS011;1509;51.964;7.628;2023-07-16T10:43:17;7.50;;;4.10;;
2998;SDS011;1509;51.964;7.628;2023-07-16T10:45:43;8.23;;;4.17;;
2998;SDS011;1509;51.964;7.628;2023-07-16T10:48:11;5.30;;;4.27;;
2998;SDS011;1509;51.964;7.628;2023-07-16T10:50:37;5.77;;;3.87;;
2998;SDS011;1509;51.964;7.628;2023-07-16T10:53:03;5.53;;;3.90;;
2998;SDS011;1509;51.964;7.628;2023-07-16T10:55:29;5.87;;;4.10;;
2998;SDS011;1509;51.964;7.628;2023-07-16T10:57:56;7.07;;;3.97;;
2998;SDS011;1509;51.964;7.628;2023-07-16T11:00:22;8.27;;;4.50;;
2998;SDS011;1509;51.964;7.628;2023-07-16T11:02:51;6.90;;;4.23;;
2998;SDS011;1509;51.964;7.628;2023-07-16T11:05:18;7.27;;;4.47;;
2998;SDS011;1509;51.964;7.628;2023-07-16T11:07:44;7.13;;;4.00;;
2998;SDS011;1509;51.964;7.628;2023-07-16T11:10:11;6.10;;;4.67;;
2998;SDS011;1509;51.964;7.628;2023-07-16T11:12:37;7.93;;;4.37;;
2998;SDS011;1509;51.964;7.628;2023-07-16T11:15:03;7.80;;;4.20;;
2998;SDS011;1509;51.964;7.628;2023-07-16T11:17:29;4.43;;;3.37;;
2998;SDS011;1509;51.964;7.628;2023-07-16T11:19:55;7.03;;;4.30;;
2998;SDS011;1509;51.964;7.628;2023-07-16T11:22:24;5.37;;;3.10;;
2998;SDS011;1509;51.964;7.628;2023-07-16T11:24:54;6.67;;;4.13;;
2998;SDS011;1509;51.964;7.628;2023-07-16T11:27:21;6.40;;;3.93;;
2998;SDS011;1509;51.964;7.628;2023-07-16T11:29:52;6.87;;;3.97;;
2998;SDS011;1509;51.964;7.628;2023-07-16T11:32:29;8.30;;;4.20;;
2998;SDS011;1509;51.964;7.628;2023-07-16T11:34:55;5.60;;;4.00;;
2998;SDS011;1509;51.964;7.628;2023-07-16T11:37:21;6.00;;;3.47;;
2998;SDS011;1509;51.964;7.628;2023-07-16T11:39:47;8.93;;;4.57;;
2998;SDS011;1509;51.964;7.628;2023-07-16T11:42:14;9.83;;;4.70;;
2998;SDS011;1509;51.964;7.628;2023-07-16T11:44:48;7.20;;;4.00;;
2998;SDS011;1509;51.964;7.628;2023-07-16T11:47:14;6.47;;;3.73;;
2998;SDS011;1509;51.964;7.628;2023-07-16T11:49:40;6.37;;;4.00;;
2998;SDS011;1509;51.964;7.628;2023-07-16T11:52:05;10.80;;;3.70;;
2998;SDS011;1509;51.964;7.628;2023-07-16T11:54:32;6.20;;;5.60;;
2998;SDS011;1509;51.964;7.628;2023-07-16T11:56:57;8.93;;;4.00;;
2998;SDS011;1509;51.964;7.628;2023-07-16T11:59:23;6.60;;;3.73;;
2998;SDS011;1509;51.964;7.628;2023-07-16T12:01:48;5.20;;;3.47;;
2998;SDS011;1509;51.964;7.628;2023-07-16T12:04:15;6.80;;;3.60;;
2998;SDS011;1509;51.964;7.628;2023-07-16T12:06:42;6.93;;;3.93;;
2998;SDS011;1509;51.964;7.628;2023-07-16T12:09:08;5.23;;;3.13;;
2998;SDS011;1509;51.964;7.628;2023-07-16T12:11:33;4.70;;;3.80;;
2998;SDS011;1509;51.964;7.628;2023-07-16T12:13:59;4.37;;;3.10;;
2998;SDS011;1509;51.964;7.628;2023-07-16T12:16:24;4.97;;;3.60;;
2998;SDS011;1509;51.964;7.628;2023-07-16T12:18:50;6.17;;;3.73;;
2998;SDS011;1509;51.964;7.628;2023-07-16T12:21:16;6.10;;;4.13;;
2998;SDS011;1509;51.964;7.628;2023-07-16T12:23:41;4.87;;;3.40;;
2998;SDS011;1509;51.964;7.628;2023-07-16T12:26:07;5.60;;;3.40;;
2998;SDS011;1509;51.964;7.628;2023-07-16T12:28:33;5.90;;;3.20;;
2998;SDS011;1509;51.964;7.628;2023-07-16T12:30:59;6.13;;;4.10;;
2998;SDS011;1509;51.964;7.628;2023-07-16T12:33:24;7.60;;;3.90;;
2998;SDS011;1509;51.964;7.628;2023-07-16T12:35:50;5.27;;;3.90;;
2998;SDS011;1509;51.964;7.628;2023-07-16T12:38:19;5.20;;;3.43;;
2998;SDS011;1509;51.964;7.628;2023-07-16T12:40:47;5.20;;;3.73;;
2998;SDS011;1509;51.964;7.628;2023-07-16T12:43:13;5.37;;;3.73;;
2998;SDS011;1509;51.964;7.628;2023-07-16T12:45:39;7.20;;;4.80;;
2998;SDS011;1509;51.964;7.628;2023-07-16T12:48:04;6.07;;;3.53;;
2998;SDS011;1509;51.964;7.628;2023-07-16T12:50:30;8.33;;;4.80;;
2998;SDS011;1509;51.964;7.628;2023-07-16T12:52:56;7.87;;;4.17;;
2998;SDS011;1509;51.964;7.628;2023-07-16T12:55:21;6.17;;;4.30;;
2998;SDS011;1509;51.964;7.628;2023-07-16T12:57:48;5.40;;;3.50;;
2998;SDS011;1509;51.964;7.628;2023-07-16T13:00:14;5.13;;;3.40;;
2998;SDS011;1509;51.964;7.628;2023-07-16T13:02:39;8.37;;;3.70;;
2998;SDS011;1509;51.964;7.628;2023-07-16T13:05:05;10.10;;;4.17;;
2998;SDS011;1509;51.964;7.628;2023-07-16T13:07:31;6.30;;;3.57;;
2998;SDS011;1509;51.964;7.628;2023-07-16T13:09:57;7.30;;;3.20;;
2998;SDS011;1509;51.964;7.628;2023-07-16T13:12:22;6.33;;;4.00;;
2998;SDS011;1509;51.964;7.628;2023-07-16T13:14:48;7.83;;;3.33;;
2998;SDS011;1509;51.964;7.628;2023-07-16T13:17:13;6.60;;;3.57;;
2998;SDS011;1509;51.964;7.628;2023-07-16T13:19:41;7.93;;;3.57;;
2998;SDS011;1509;51.964;7.628;2023-07-16T13:22:07;8.63;;;4.20;;
2998;SDS011;1509;51.964;7.628;2023-07-16T13:24:32;4.87;;;3.40;;
2998;SDS011;1509;51.964;7.628;2023-07-16T13:26:58;6.77;;;3.97;;
2998;SDS011;1509;51.964;7.628;2023-07-16T13:29:24;6.47;;;3.50;;
2998;SDS011;1509;51.964;7.628;2023-07-16T13:31:49;11.80;;;4.00;;
2998;SDS011;1509;51.964;7.628;2023-07-16T13:34:15;5.13;;;3.80;;
2998;SDS011;1509;51.964;7.628;2023-07-16T13:36:40;7.87;;;4.27;;
2998;SDS011;1509;51.964;7.628;2023-07-16T13:39:06;5.70;;;4.13;;
2998;SDS011;1509;51.964;7.628;2023-07-16T13:41:32;5.17;;;3.40;;
2998;SDS011;1509;51.964;7.628;2023-07-16T13:43:57;6.10;;;3.53;;
2998;SDS011;1509;51.964;7.628;2023-07-16T13:46:23;4.87;;;3.60;;
2998;SDS011;1509;51.964;7.628;2023-07-16T13:48:49;6.27;;;3.57;;
2998;SDS011;1509;51.964;7.628;2023-07-16T13:51:14;5.20;;;3.27;;
2998;SDS011;1509;51.964;7.628;2023-07-16T13:53:40;5.90;;;3.00;;
2998;SDS011;1509;51.964;7.628;2023-07-16T13:56:06;6.60;;;3.50;;
2998;SDS011;1509;51.964;7.628;2023-07-16T13:58:33;10.97;;;4.10;;
2998;SDS011;1509;51.964;7.628;2023-07-16T14:00:58;7.00;;;3.27;;
2998;SDS011;1509;51.964;7.628;2023-07-16T14:03:24;5.97;;;3.00;;
2998;SDS011;1509;51.964;7.628;2023-07-16T14:05:50;5.47;;;3.40;;
2998;SDS011;1509;51.964;7.628;2023-07-16T14:08:16;5.80;;;3.33;;
2998;SDS011;1509;51.964;7.628;2023-07-16T14:10:42;4.50;;;3.37;;
2998;SDS011;1509;51.964;7.628;2023-07-16T14:13:07;6.67;;;3.47;;
2998;SDS011;1509;51.964;7.628;2023-07-16T14:15:33;8.30;;;3.10;;
2998;SDS011;1509;51.964;7.628;2023-07-16T14:17:59;4.77;;;3.00;;
2998;SDS011;1509;51.964;7.628;2023-07-16T14:20:24;4.73;;;2.90;;
2998;SDS011;1509;51.964;7.628;2023-07-16T14:22:50;5.40;;;2.60;;
2998;SDS011;1509;51.964;7.628;2023-07-16T14:25:15;5.40;;;3.27;;
2998;SDS011;1509;51.964;7.628;2023-07-16T14:27:41;4.37;;;3.43;;
2998;SDS011;1509;51.964;7.628;2023-07-16T14:30:07;4.37;;;3.03;;
2998;SDS011;1509;51.964;7.628;2023-07-16T14:32:33;5.20;;;3.17;;
2998;SDS011;1509;51.964;7.628;2023-07-16T14:34:59;5.20;;;2.97;;
2998;SDS011;1509;51.964;7.628;2023-07-16T14:37:25;8.30;;;3.03;;
2998;SDS011;1509;51.964;7.628;2023-07-16T14:39:51;5.00;;;2.77;;
2998;SDS011;1509;51.964;7.628;2023-07-16T14:42:17;6.40;;;2.60;;
2998;SDS011;1509;51.964;7.628;2023-07-16T14:44:42;6.87;;;3.40;;
2998;SDS011;1509;51.964;7.628;2023-07-16T14:47:08;4.97;;;3.43;;
2998;SDS011;1509;51.964;7.628;2023-07-16T14:49:33;5.30;;;3.03;;
2998;SDS011;1509;51.964;7.628;2023-07-16T14:52:00;3.77;;;2.77;;
2998;SDS011;1509;51.964;7.628;2023-07-16T14:54:25;4.83;;;3.43;;
2998;SDS011;1509;51.964;7.628;2023-07-16T14:56:51;5.97;;;3.67;;
2998;SDS011;1509;51.964;7.628;2023-07-16T14:59:16;5.17;;;2.97;;
2998;SDS011;1509;51.964;7.628;2023-07-16T15:01:42;3.87;;;2.87;;
2998;SDS011;1509;51.964;7.628;2023-07-16T15:04:08;4.67;;;2.90;;
2998;SDS011;1509;51.964;7.628;2023-07-16T15:06:34;4.27;;;2.70;;
2998;SDS011;1509;51.964;7.628;2023-07-16T15:09:00;3.80;;;2.87;;
2998;SDS011;1509;51.964;7.628;2023-07-16T15:11:25;6.13;;;3.17;;
2998;SDS011;1509;51.964;7.628;2023-07-16T15:13:51;7.90;;;3.47;;
2998;SDS011;1509;51.964;7.628;2023-07-16T15:16:16;4.47;;;3.40;;
2998;SDS011;1509;51.964;7.628;2023-07-16T15:18:42;5.43;;;3.03;;
2998;SDS011;1509;51.964;7.628;2023-07-16T15:21:10;6.83;;;2.67;;
2998;SDS011;1509;51.964;7.628;2023-07-16T15:23:35;6.30;;;2.90;;